Data for 01/14/2016

Time Sea-Level Adjusted Pressure Absolute Pressure Temperature Relative Humidity Dew Point   
(mb) (inHg) (mb) (inHg) (C) (F) (%) (C) (F)
00:05 1007 29.74 836 24.69 2.4 36.2 58 -5.2 22.7
00:10 1007 29.74 836 24.69 2.3 36.1 57 -5.4 22.3
00:15 1007 29.74 836 24.69 2.3 36.1 57 -5.4 22.3
00:20 1007 29.74 836 24.69 2.2 35.9 56 -5.8 21.6
00:25 1007 29.74 836 24.69 2.1 35.8 56 -5.7 21.8
00:30 1007 29.74 836 24.69 2 35.7 58 -5.5 22.2
00:35 1006 29.71 836 24.69 2 35.6 58 -5.5 22.2
00:40 1007 29.74 836 24.69 1.9 35.4 58 -5.5 22.2
00:45 1007 29.74 836 24.69 1.7 35 61 -5.1 22.8
00:50 1007 29.74 836 24.69 1.4 34.4 61 -5.3 22.4
00:55 1007 29.74 836 24.69 1.3 34.3 60 -5.6 21.9
01:00 1007 29.74 836 24.69 1.4 34.5 59 -5.8 21.6
01:05 1007 29.74 836 24.69 1.7 35 58 -5.8 21.5
01:10 1007 29.74 836 24.69 1.9 35.4 56 -5.9 21.3
01:15 1007 29.74 836 24.69 2 35.7 57 -5.7 21.8
01:20 1007 29.74 836 24.69 2 35.7 56 -5.7 21.7
01:25 1007 29.74 836 24.69 2 35.5 57 -5.6 21.9
01:30 1007 29.74 836 24.69 1.9 35.4 57 -5.7 21.8
01:35 1007 29.74 836 24.69 1.8 35.3 57 -5.9 21.4
01:40 1007 29.74 836 24.69 1.9 35.4 55 -6.3 20.6
01:45 1007 29.74 836 24.69 2 35.7 53 -6.6 20.1
01:50 1007 29.74 836 24.69 2.4 36.4 53 -6.1 21
01:55 1007 29.74 836 24.69 2.5 36.4 52 -6.3 20.6
02:00 1007 29.74 836 24.69 2.5 36.5 52 -6.3 20.7
02:05 1007 29.74 836 24.69 2.5 36.4 54 -5.9 21.3
02:10 1007 29.74 836 24.69 2.4 36.3 54 -5.9 21.4
02:15 1007 29.74 836 24.69 2.3 36.1 54 -6.1 21
02:20 1007 29.74 836 24.69 2.3 36.1 52 -6.5 20.3
02:25 1007 29.74 836 24.69 2.5 36.5 51 -6.6 20.2
02:30 1007 29.74 836 24.69 2.5 36.5 53 -6.2 20.9
02:35 1007 29.74 836 24.69 2.4 36.3 54 -6 21.2
02:40 1007 29.74 836 24.69 2.3 36.2 54 -6 21.2
02:45 1007 29.74 836 24.69 2.2 36 55 -5.9 21.4
02:50 1007 29.74 836 24.69 2.1 35.8 56 -5.8 21.5
02:55 1007 29.74 836 24.69 2 35.7 57 -5.6 21.9
03:00 1007 29.74 836 24.69 2 35.6 56 -5.8 21.6
03:05 1007 29.74 836 24.69 2 35.6 57 -5.6 21.9
03:10 1007 29.74 836 24.69 1.9 35.5 57 -5.6 21.8
03:15 1007 29.74 836 24.69 1.9 35.4 57 -5.7 21.8
03:20 1007 29.74 836 24.69 1.8 35.3 57 -5.7 21.7
03:25 1007 29.74 836 24.69 1.8 35.2 58 -5.7 21.7
03:30 1007 29.74 836 24.69 1.8 35.2 57 -5.8 21.6
03:35 1007 29.74 836 24.69 1.9 35.4 56 -6 21.3
03:40 1007 29.74 836 24.69 1.8 35.3 60 -5.1 22.8
03:45 1007 29.74 837 24.72 1.5 34.6 61 -5.2 22.6
03:50 1007 29.74 837 24.72 1.5 34.8 59 -5.7 21.8
03:55 1007 29.74 837 24.72 1.6 34.9 59 -5.5 22.1
04:00 1007 29.74 837 24.72 1.6 34.9 60 -5.3 22.5
04:05 1007 29.74 837 24.72 1.6 34.9 59 -5.6 21.9
04:10 1007 29.74 837 24.72 1.8 35.2 58 -5.5 22
04:15 1007 29.74 837 24.72 1.8 35.2 56 -6.2 20.9
04:20 1007 29.74 837 24.72 2.1 35.7 54 -6.3 20.6
04:25 1007 29.74 837 24.72 2.1 35.7 54 -6.3 20.7
04:30 1007 29.74 837 24.72 2.1 35.8 54 -6.2 20.9
04:35 1007 29.74 837 24.72 2 35.7 55 -6.1 21
04:40 1007 29.74 837 24.72 2 35.6 56 -5.8 21.5
04:45 1007 29.74 837 24.72 1.9 35.4 57 -5.8 21.5
04:50 1008 29.77 837 24.72 1.8 35.2 57 -5.8 21.5
04:55 1008 29.77 837 24.72 1.7 35.1 57 -5.9 21.3
05:00 1008 29.77 837 24.72 1.8 35.2 56 -6 21.2
05:05 1008 29.77 837 24.72 1.9 35.5 56 -6 21.3
05:10 1008 29.77 837 24.72 2 35.5 56 -6 21.2
05:15 1008 29.77 837 24.72 1.9 35.5 57 -5.8 21.6
05:20 1008 29.77 837 24.72 1.8 35.2 59 -5.5 22.1
05:25 1008 29.77 837 24.72 1.6 34.9 60 -5.4 22.3
05:30 1008 29.77 837 24.72 1.6 34.9 60 -5.4 22.3
05:35 1008 29.77 837 24.72 1.6 34.9 60 -5.4 22.2
05:40 1008 29.77 837 24.72 1.7 35 59 -5.5 22
05:45 1008 29.77 837 24.72 1.8 35.2 59 -5.4 22.2
05:50 1008 29.77 837 24.72 1.7 35 60 -5.3 22.4
05:55 1008 29.77 837 24.72 1.6 34.8 61 -5.2 22.6
06:00 1008 29.77 837 24.72 1.5 34.7 62 -5.1 22.8
06:05 1008 29.77 837 24.72 1.4 34.5 62 -5.1 22.8
06:10 1008 29.77 837 24.72 1.4 34.6 61 -5.4 22.4
06:15 1008 29.77 837 24.72 1.7 35 59 -5.5 22
06:20 1008 29.77 837 24.72 1.8 35.2 59 -5.4 22.4
06:25 1008 29.77 837 24.72 1.8 35.2 59 -5.3 22.4
06:30 1008 29.77 837 24.72 1.7 35.1 60 -5.1 22.8
06:35 1008 29.77 837 24.72 1.6 34.9 61 -5.2 22.6
06:40 1008 29.77 837 24.72 1.6 34.9 61 -5.2 22.7
06:45 1008 29.77 837 24.72 1.6 34.9 59 -5.5 22.2
06:50 1008 29.77 838 24.75 1.8 35.2 58 -5.5 22
06:55 1008 29.77 838 24.75 1.9 35.4 58 -5.5 22.1
07:00 1008 29.77 838 24.75 2 35.5 56 -5.9 21.5
07:05 1008 29.77 838 24.75 2.1 35.7 58 -5.4 22.3
07:10 1009 29.8 838 24.75 1.9 35.4 59 -5.4 22.4
07:15 1009 29.8 838 24.75 1.8 35.2 59 -5.3 22.4
07:20 1009 29.8 838 24.75 1.7 35.1 59 -5.5 22
07:25 1009 29.8 838 24.75 1.7 35.1 59 -5.4 22.3
07:30 1009 29.8 838 24.75 1.7 35 58 -5.8 21.6
07:35 1009 29.8 838 24.75 1.7 35.1 58 -5.6 21.9
07:40 1009 29.8 838 24.75 1.8 35.2 58 -5.6 21.9
07:45 1009 29.8 838 24.75 1.8 35.2 58 -5.6 22
07:50 1009 29.8 838 24.75 1.8 35.2 57 -5.7 21.7
07:55 1009 29.8 838 24.75 1.8 35.3 57 -5.8 21.6
08:00 1009 29.8 838 24.75 1.9 35.3 58 -5.5 22
08:05 1009 29.8 838 24.75 1.7 35.1 58 -5.6 21.9
08:10 1009 29.8 838 24.75 1.8 35.2 57 -5.9 21.4
08:15 1009 29.8 838 24.75 1.9 35.4 57 -5.8 21.6
08:20 1009 29.8 838 24.75 1.8 35.2 57 -5.8 21.6
08:25 1009 29.8 838 24.75 1.8 35.2 57 -5.9 21.3
08:30 1009 29.8 838 24.75 1.9 35.4 57 -5.7 21.8
08:35 1009 29.8 838 24.75 1.8 35.3 56 -6 21.3
08:40 1009 29.8 838 24.75 1.8 35.2 58 -5.7 21.8
08:45 1009 29.8 838 24.75 1.6 35 58 -5.7 21.8
08:50 1009 29.8 839 24.78 1.5 34.8 60 -5.4 22.2
08:55 1009 29.8 839 24.78 1.4 34.5 60 -5.6 21.9
09:00 1009 29.8 839 24.78 1.3 34.3 61 -5.4 22.2
09:05 1009 29.8 839 24.78 1.2 34.2 60 -5.7 21.8
09:10 1009 29.8 839 24.78 1.3 34.3 58 -6 21.2
09:15 1009 29.8 839 24.78 1.3 34.4 59 -5.9 21.4
09:20 1009 29.8 839 24.78 1.3 34.3 59 -6 21.3
09:25 1010 29.83 839 24.78 1.3 34.3 58 -6.2 20.9
09:30 1010 29.83 839 24.78 1.3 34.4 57 -6.3 20.7
09:35 1010 29.83 839 24.78 1.4 34.4 55 -6.7 20
09:40 1010 29.83 839 24.78 1.4 34.5 56 -6.5 20.4
09:45 1010 29.83 839 24.78 1.3 34.3 57 -6.4 20.5
09:50 1010 29.83 839 24.78 1.1 34.1 58 -6.2 20.9
09:55 1010 29.83 839 24.78 1 33.9 58 -6.3 20.7
10:00 1010 29.83 839 24.78 1.1 33.9 57 -6.6 20.2
10:05 1010 29.83 839 24.78 1.1 34 55 -7 19.4
10:10 1010 29.83 840 24.81 1.2 34.1 54 -7.1 19.3
10:15 1010 29.83 840 24.81 1.2 34.2 54 -7.1 19.3
10:20 1011 29.85 840 24.81 1.2 34.2 54 -7 19.4
10:25 1011 29.85 840 24.81 1.1 33.9 56 -6.8 19.8
10:30 1011 29.85 840 24.81 1 33.8 55 -6.9 19.5
10:35 1011 29.85 840 24.81 1 33.7 54 -7.3 18.9
10:40 1011 29.85 840 24.81 1 33.9 52 -7.8 18
10:45 1011 29.85 840 24.81 1.1 34 53 -7.4 18.7
10:50 1011 29.85 840 24.81 1.1 34 53 -7.5 18.4
10:55 1011 29.85 840 24.81 1.1 34 52 -7.6 18.3
11:00 1011 29.85 840 24.81 1 33.8 53 -7.6 18.4
11:05 1011 29.85 840 24.81 1 33.8 52 -7.8 18
11:10 1011 29.85 840 24.81 1 33.8 52 -7.8 18
11:15 1011 29.85 840 24.81 1.1 33.9 52 -7.7 18.2
11:20 1011 29.85 840 24.81 1.1 33.9 53 -7.6 18.4
11:25 1011 29.85 841 24.83 1 33.7 54 -7.3 18.9
11:30 1011 29.85 841 24.83 1 33.8 51 -8 17.7
11:35 1011 29.85 841 24.83 1 33.9 50 -8.3 17
11:40 1011 29.85 841 24.83 1.3 34.3 50 -8 17.6
11:45 1011 29.85 841 24.83 1.2 34.2 51 -7.8 17.9
11:50 1011 29.85 841 24.83 1.2 34.2 52 -7.7 18.2
11:55 1011 29.85 841 24.83 1.2 34.2 53 -7.4 18.8
12:00 1011 29.85 841 24.83 1.3 34.3 52 -7.6 18.3
12:05 1011 29.85 841 24.83 1.4 34.6 50 -7.8 17.9
12:10 1011 29.85 841 24.83 1.5 34.8 52 -7.4 18.7
12:15 1011 29.85 841 24.83 1.2 34.2 52 -7.4 18.6
12:20 1011 29.85 841 24.83 1 33.8 52 -7.8 17.9
12:25 1011 29.85 841 24.83 1.1 34 51 -8 17.7
12:30 1011 29.85 841 24.83 1.2 34.2 52 -7.6 18.3
12:35 1011 29.85 841 24.83 1.4 34.6 52 -7.4 18.8
12:40 1011 29.85 841 24.83 1.4 34.6 52 -7.3 18.8
12:45 1011 29.85 841 24.83 1.3 34.3 53 -7.4 18.7
12:50 1011 29.85 841 24.83 1.1 34 53 -7.4 18.7
12:55 1011 29.85 841 24.83 1.3 34.3 48 -8.4 16.8
13:00 1011 29.85 841 24.83 1.5 34.8 51 -7.5 18.4
13:05 1011 29.85 841 24.83 1.4 34.6 50 -7.8 17.9
13:10 1011 29.85 840 24.81 1.3 34.4 50 -8 17.7
13:15 1011 29.85 841 24.83 1.4 34.5 50 -7.9 17.8
13:20 1011 29.85 840 24.81 1.4 34.5 50 -7.9 17.7
13:25 1011 29.85 840 24.81 1.3 34.4 49 -8.2 17.2
13:30 1011 29.85 841 24.83 1.4 34.5 48 -8.5 16.7
13:35 1011 29.85 841 24.83 1.4 34.5 48 -8.4 16.8
13:40 1011 29.85 840 24.81 1.6 34.8 47 -8.5 16.7
13:45 1011 29.85 840 24.81 1.4 34.6 47 -8.7 16.4
13:50 1011 29.85 840 24.81 1.4 34.6 47 -8.7 16.3
13:55 1011 29.85 840 24.81 1.5 34.7 47 -8.7 16.3
14:00 1011 29.85 840 24.81 1.4 34.5 47 -8.7 16.4
14:05 1011 29.85 840 24.81 1.3 34.3 47 -8.9 16.1
14:10 1011 29.85 840 24.81 1.1 34.1 48 -8.7 16.4
14:15 1011 29.85 840 24.81 1 33.9 49 -8.5 16.6
14:20 1011 29.85 840 24.81 1.1 33.9 50 -8.3 17
14:25 1011 29.85 840 24.81 1.1 34 50 -8.1 17.4
14:30 1011 29.85 840 24.81 1.1 34 48 -8.6 16.5
14:35 1011 29.85 840 24.81 1.2 34.2 48 -8.6 16.6
14:40 1011 29.85 840 24.81 1.2 34.1 47 -9 15.9
14:45 1011 29.85 840 24.81 1.2 34.1 45 -9.4 15.1
14:50 1011 29.85 840 24.81 1.2 34.2 46 -9.2 15.4
14:55 1011 29.85 840 24.81 1.1 34 46 -9.3 15.3
15:00 1011 29.85 840 24.81 1.1 34 46 -9.4 15.1
15:05 1011 29.85 840 24.81 1.1 33.9 47 -9 15.7
15:10 1011 29.85 840 24.81 1 33.8 47 -9 15.8
15:15 1011 29.85 840 24.81 1 33.7 47 -9.1 15.6
15:20 1011 29.85 840 24.81 1 33.9 48 -8.9 16
15:25 1011 29.85 840 24.81 0.9 33.7 47 -9.1 15.7
15:30 1011 29.85 840 24.81 0.9 33.6 47 -9.1 15.6
15:35 1011 29.85 840 24.81 0.9 33.6 49 -8.7 16.3
15:40 1011 29.85 840 24.81 0.8 33.5 48 -9 15.8
15:45 1011 29.85 840 24.81 0.8 33.4 49 -8.9 16.1
15:50 1011 29.85 840 24.81 0.7 33.3 49 -8.8 16.1
15:55 1011 29.85 840 24.81 0.7 33.3 48 -9 15.9
16:00 1011 29.85 840 24.81 0.7 33.3 48 -9 15.7
16:05 1011 29.85 840 24.81 0.8 33.4 48 -8.9 15.9
16:10 1011 29.85 840 24.81 0.9 33.5 48 -8.9 16
16:15 1011 29.85 840 24.81 0.8 33.4 49 -8.8 16.1
16:20 1011 29.85 840 24.81 0.8 33.4 48 -8.9 16
16:25 1011 29.85 840 24.81 0.8 33.5 49 -8.6 16.6
16:30 1011 29.85 840 24.81 0.8 33.5 48 -9 15.8
16:35 1011 29.85 840 24.81 0.9 33.6 48 -9 15.9
16:40 1011 29.85 840 24.81 1 33.7 46 -9.5 14.9
16:45 1011 29.85 840 24.81 0.9 33.6 47 -9.2 15.4
16:50 1011 29.85 840 24.81 0.8 33.5 47 -9.3 15.3
16:55 1011 29.85 840 24.81 0.9 33.6 46 -9.4 15.1
17:00 1011 29.85 841 24.83 0.7 33.3 47 -9.2 15.4
17:05 1011 29.85 841 24.83 0.6 33 49 -9 15.8
17:10 1011 29.85 841 24.83 0.3 32.6 56 -7.6 18.4
17:15 1011 29.85 841 24.83 -0.2 31.7 59 -7.3 18.9
17:20 1011 29.85 841 24.83 -0.3 31.5 59 -7.4 18.7
17:25 1011 29.85 841 24.83 -0.4 31.3 57 -7.8 17.9
17:30 1011 29.85 841 24.83 -0.5 31.2 59 -7.5 18.4
17:35 1011 29.85 841 24.83 -0.5 31.1 59 -7.6 18.4
17:40 1011 29.85 841 24.83 -0.4 31.2 57 -7.9 17.8
17:45 1011 29.85 841 24.83 -0.5 31.1 55 -8.3 17
17:50 1011 29.85 841 24.83 -0.5 31.1 56 -8.2 17.3
17:55 1011 29.85 841 24.83 -0.5 31 56 -8.2 17.2
18:00 1011 29.85 841 24.83 -0.7 30.8 59 -7.7 18.1
18:05 1011 29.85 841 24.83 -1 30.1 60 -7.8 18
18:10 1011 29.85 841 24.83 -1.2 29.8 60 -7.9 17.7
18:15 1011 29.85 841 24.83 -1.2 29.8 60 -8 17.6
18:20 1011 29.85 841 24.83 -1.1 30 60 -8 17.6
18:25 1011 29.85 841 24.83 -1.2 29.9 59 -8.2 17.2
18:30 1011 29.85 841 24.83 -1.1 30.1 57 -8.5 16.8
18:35 1011 29.85 841 24.83 -0.9 30.3 56 -8.7 16.4
18:40 1011 29.85 841 24.83 -0.8 30.5 55 -8.7 16.3
18:45 1011 29.85 841 24.83 -0.9 30.5 54 -9.1 15.6
18:50 1011 29.85 840 24.81 -0.9 30.5 56 -8.6 16.5
18:55 1011 29.85 840 24.81 -0.9 30.3 55 -8.8 16.2
19:00 1011 29.85 840 24.81 -1 30.3 55 -8.8 16.1
19:05 1011 29.85 840 24.81 -1 30.2 56 -8.8 16.2
19:10 1011 29.85 840 24.81 -1.1 30 55 -9.1 15.6
19:15 1011 29.85 840 24.81 -1.1 30 54 -9.2 15.4
19:20 1011 29.85 840 24.81 -1.1 30 56 -8.8 16.2
19:25 1011 29.85 840 24.81 -1.3 29.7 55 -9.1 15.5
19:30 1011 29.85 840 24.81 -1.2 29.8 55 -9.2 15.4
19:35 1011 29.85 840 24.81 -1.4 29.6 56 -9 15.8
19:40 1011 29.85 840 24.81 -1.5 29.3 57 -9 15.7
19:45 1011 29.85 840 24.81 -1.5 29.4 58 -8.6 16.5
19:50 1011 29.85 840 24.81 -1.5 29.2 60 -8.4 16.9
19:55 1011 29.85 840 24.81 -1.6 29.1 60 -8.3 17
20:00 1011 29.85 840 24.81 -1.6 29 61 -8.3 17.1
20:05 1011 29.85 840 24.81 -1.5 29.3 60 -8.4 17
20:10 1011 29.85 840 24.81 -1.4 29.4 58 -8.7 16.4
20:15 1011 29.85 840 24.81 -1.3 29.6 59 -8.3 17
20:20 1011 29.85 840 24.81 -1.4 29.6 61 -8 17.5
20:25 1011 29.85 840 24.81 -1.5 29.3 59 -8.5 16.7
20:30 1011 29.85 840 24.81 -1.5 29.3 59 -8.5 16.6
20:35 1011 29.85 840 24.81 -1.4 29.5 57 -8.8 16.2
20:40 1011 29.85 840 24.81 -1.3 29.6 58 -8.5 16.7
20:45 1011 29.85 840 24.81 -1.4 29.5 58 -8.6 16.5
20:50 1011 29.85 840 24.81 -1.5 29.4 58 -8.6 16.5
20:55 1011 29.85 840 24.81 -1.5 29.3 59 -8.4 16.8
21:00 1011 29.85 840 24.81 -1.6 29.1 60 -8.4 16.8
21:05 1011 29.85 840 24.81 -1.6 29.1 60 -8.4 16.9
21:10 1011 29.85 840 24.81 -1.6 29.1 60 -8.5 16.7
21:15 1011 29.85 840 24.81 -1.6 29.1 60 -8.4 16.9
21:20 1011 29.85 840 24.81 -1.7 28.9 60 -8.6 16.5
21:25 1011 29.85 840 24.81 -1.8 28.8 57 -9.2 15.5
21:30 1011 29.85 840 24.81 -1.8 28.8 56 -9.5 15
21:35 1011 29.85 840 24.81 -1.8 28.8 56 -9.4 15.1
21:40 1011 29.85 840 24.81 -1.9 28.5 56 -9.6 14.7
21:45 1011 29.85 840 24.81 -2 28.4 56 -9.7 14.5
21:50 1011 29.85 840 24.81 -2.1 28.1 56 -9.9 14.3
21:55 1011 29.85 840 24.81 -2.3 27.8 55 -10.1 13.8
22:00 1010 29.83 840 24.81 -2.4 27.7 55 -10.3 13.5
22:05 1010 29.83 840 24.81 -2.6 27.4 54 -10.5 13.1
22:10 1010 29.83 840 24.81 -2.7 27.2 52 -11.1 12
22:15 1010 29.83 840 24.81 -2.7 27.2 53 -11 12.1
22:20 1010 29.83 840 24.81 -2.7 27.1 52 -11.3 11.7
22:25 1010 29.83 840 24.81 -2.7 27.1 53 -11 12.3
22:30 1010 29.83 839 24.78 -2.8 27 52 -11.2 11.9
22:35 1010 29.83 839 24.78 -2.8 26.9 53 -11.2 11.9
22:40 1010 29.83 839 24.78 -2.9 26.8 52 -11.4 11.5
22:45 1010 29.83 839 24.78 -3 26.6 53 -11.4 11.5
22:50 1010 29.83 839 24.78 -3.2 26.2 54 -11.2 11.8
22:55 1010 29.83 839 24.78 -3.3 26.1 52 -11.7 11
23:00 1010 29.83 839 24.78 -3 26.5 51 -11.8 10.8
23:05 1010 29.83 839 24.78 -2.9 26.8 50 -12.1 10.3
23:10 1010 29.83 839 24.78 -2.8 27 50 -11.8 10.7
23:15 1010 29.83 840 24.81 -2.7 27.1 49 -12 10.4
23:20 1010 29.83 840 24.81 -2.7 27.2 50 -11.7 10.9
23:25 1010 29.83 840 24.81 -2.8 27 49 -12 10.4
23:30 1010 29.83 839 24.78 -2.9 26.9 50 -11.8 10.7
23:35 1010 29.83 839 24.78 -2.9 26.9 49 -12.2 10.1
23:40 1010 29.83 839 24.78 -2.9 26.8 49 -12.3 9.9
23:45 1010 29.83 839 24.78 -3 26.6 49 -12.3 9.9
23:50 1010 29.83 839 24.78 -3.1 26.4 50 -12.2 10
23:55 1010 29.83 839 24.78 -3.3 26 51 -12.1 10.1
24:00 1010 29.83 839 24.78 -3.4 26 50 -12.3 9.9